KCAO/CAO METAR and TAF weather

Enter ICAO airport designator
Station Type Date Time Source
KCAO METAR 2019/10/21 01:55 UTC NOAA

KCAO 210155Z AUTO 29012KT 10SM CLR 06/M19 A2987 RMK AO2 SLP100 T00611194


Station Type Date Time Source
KCAO Decoded METAR 2019/10/21 01:55 UTC NOAA

CLAYTON MUNICIPAL AIRPARK, NM, United States (KCAO) 36-27N 103-09W 1514M
Oct 20, 2019 - 09:55 PM EDT / 2019.10.21 0155 UTC
Wind: from the WNW (290 degrees) at 14 MPH (12 KT):0
Visibility: 10 mile(s):0
Sky conditions: clear
Temperature: 43.0 F (6.1 C)
Dew Point: -2.9 F (-19.4 C)
Relative Humidity: 14%
Pressure (altimeter): 29.87 in. Hg (1011 hPa)
ob: KCAO 210155Z AUTO 29012KT 10SM CLR 06/M19 A2987 RMK AO2 SLP100 T00611194
cycle: 2

Station Type Date Time Source
KCAO TAF UTC NOAA

Error!

Example: see airport list